sensor_id;sensor_type;location;lat;lon;timestamp;P1;durP1;ratioP1;P2;durP2;ratioP2
66145;SDS011;52948;60.040;30.320;2023-06-14T00:01:19;6.50;;;2.78;;
66145;SDS011;52948;60.040;30.320;2023-06-14T00:06:23;3.70;;;2.50;;
66145;SDS011;52948;60.040;30.320;2023-06-14T00:11:26;5.15;;;2.55;;
66145;SDS011;52948;60.040;30.320;2023-06-14T00:16:28;6.85;;;2.88;;
66145;SDS011;52948;60.040;30.320;2023-06-14T00:21:31;6.05;;;2.72;;
66145;SDS011;52948;60.040;30.320;2023-06-14T00:26:33;5.68;;;2.90;;
66145;SDS011;52948;60.040;30.320;2023-06-14T00:31:36;9.07;;;3.90;;
66145;SDS011;52948;60.040;30.320;2023-06-14T00:36:38;6.53;;;3.80;;
66145;SDS011;52948;60.040;30.320;2023-06-14T00:41:40;4.47;;;2.90;;
66145;SDS011;52948;60.040;30.320;2023-06-14T00:46:42;6.28;;;3.33;;
66145;SDS011;52948;60.040;30.320;2023-06-14T00:51:45;4.32;;;3.03;;
66145;SDS011;52948;60.040;30.320;2023-06-14T00:56:48;4.47;;;2.88;;
66145;SDS011;52948;60.040;30.320;2023-06-14T01:01:50;5.72;;;2.95;;
66145;SDS011;52948;60.040;30.320;2023-06-14T01:12:13;4.78;;;3.00;;
66145;SDS011;52948;60.040;30.320;2023-06-14T01:17:23;4.40;;;2.70;;
66145;SDS011;52948;60.040;30.320;2023-06-14T01:22:28;4.75;;;2.78;;
66145;SDS011;52948;60.040;30.320;2023-06-14T01:27:31;6.40;;;3.10;;
66145;SDS011;52948;60.040;30.320;2023-06-14T01:32:34;7.80;;;3.17;;
66145;SDS011;52948;60.040;30.320;2023-06-14T01:37:36;4.40;;;2.83;;
66145;SDS011;52948;60.040;30.320;2023-06-14T01:42:39;6.55;;;2.95;;
66145;SDS011;52948;60.040;30.320;2023-06-14T01:47:42;3.63;;;2.63;;
66145;SDS011;52948;60.040;30.320;2023-06-14T01:52:46;3.15;;;2.42;;
66145;SDS011;52948;60.040;30.320;2023-06-14T01:57:48;4.55;;;2.63;;
66145;SDS011;52948;60.040;30.320;2023-06-14T02:02:50;4.50;;;2.33;;
66145;SDS011;52948;60.040;30.320;2023-06-14T02:07:54;7.55;;;2.65;;
66145;SDS011;52948;60.040;30.320;2023-06-14T02:12:56;2.78;;;2.47;;
66145;SDS011;52948;60.040;30.320;2023-06-14T02:17:59;4.38;;;2.33;;
66145;SDS011;52948;60.040;30.320;2023-06-14T02:23:02;2.60;;;2.22;;
66145;SDS011;52948;60.040;30.320;2023-06-14T02:28:07;5.95;;;2.30;;
66145;SDS011;52948;60.040;30.320;2023-06-14T02:33:09;4.38;;;2.55;;
66145;SDS011;52948;60.040;30.320;2023-06-14T02:38:15;4.20;;;2.23;;
66145;SDS011;52948;60.040;30.320;2023-06-14T02:43:18;3.97;;;2.25;;
66145;SDS011;52948;60.040;30.320;2023-06-14T02:48:20;3.53;;;2.28;;
66145;SDS011;52948;60.040;30.320;2023-06-14T02:53:22;3.17;;;2.03;;
66145;SDS011;52948;60.040;30.320;2023-06-14T02:58:25;2.47;;;2.28;;
66145;SDS011;52948;60.040;30.320;2023-06-14T03:03:27;2.60;;;2.30;;
66145;SDS011;52948;60.040;30.320;2023-06-14T03:08:31;2.80;;;1.95;;
66145;SDS011;52948;60.040;30.320;2023-06-14T03:13:43;6.18;;;2.28;;
66145;SDS011;52948;60.040;30.320;2023-06-14T03:18:55;5.72;;;2.50;;
66145;SDS011;52948;60.040;30.320;2023-06-14T03:24:00;3.33;;;2.03;;
66145;SDS011;52948;60.040;30.320;2023-06-14T03:29:05;4.40;;;1.90;;
66145;SDS011;52948;60.040;30.320;2023-06-14T03:34:07;2.67;;;1.85;;
66145;SDS011;52948;60.040;30.320;2023-06-14T03:39:10;3.20;;;2.08;;
66145;SDS011;52948;60.040;30.320;2023-06-14T03:44:14;2.65;;;1.98;;
66145;SDS011;52948;60.040;30.320;2023-06-14T03:49:18;6.07;;;2.15;;
66145;SDS011;52948;60.040;30.320;2023-06-14T03:54:21;5.68;;;2.30;;
66145;SDS011;52948;60.040;30.320;2023-06-14T03:59:26;3.28;;;2.28;;
66145;SDS011;52948;60.040;30.320;2023-06-14T04:04:29;3.20;;;1.88;;
66145;SDS011;52948;60.040;30.320;2023-06-14T04:09:32;4.32;;;1.90;;
66145;SDS011;52948;60.040;30.320;2023-06-14T04:14:35;3.08;;;1.60;;
66145;SDS011;52948;60.040;30.320;2023-06-14T04:19:37;3.38;;;2.15;;
66145;SDS011;52948;60.040;30.320;2023-06-14T04:24:39;4.60;;;1.90;;
66145;SDS011;52948;60.040;30.320;2023-06-14T04:29:44;3.35;;;2.00;;
66145;SDS011;52948;60.040;30.320;2023-06-14T04:34:55;3.70;;;1.83;;
66145;SDS011;52948;60.040;30.320;2023-06-14T04:40:01;3.33;;;1.98;;
66145;SDS011;52948;60.040;30.320;2023-06-14T04:45:06;3.25;;;2.00;;
66145;SDS011;52948;60.040;30.320;2023-06-14T04:50:10;3.70;;;2.15;;
66145;SDS011;52948;60.040;30.320;2023-06-14T04:55:17;3.25;;;1.75;;
66145;SDS011;52948;60.040;30.320;2023-06-14T05:00:22;4.45;;;1.80;;
66145;SDS011;52948;60.040;30.320;2023-06-14T05:05:25;3.08;;;2.05;;
66145;SDS011;52948;60.040;30.320;2023-06-14T05:10:27;5.25;;;1.90;;
66145;SDS011;52948;60.040;30.320;2023-06-14T05:15:30;4.82;;;1.90;;
66145;SDS011;52948;60.040;30.320;2023-06-14T05:20:32;4.28;;;2.20;;
66145;SDS011;52948;60.040;30.320;2023-06-14T05:25:34;4.85;;;2.05;;
66145;SDS011;52948;60.040;30.320;2023-06-14T05:30:37;3.00;;;1.77;;
66145;SDS011;52948;60.040;30.320;2023-06-14T05:35:41;2.40;;;2.10;;
66145;SDS011;52948;60.040;30.320;2023-06-14T05:40:43;5.05;;;2.10;;
66145;SDS011;52948;60.040;30.320;2023-06-14T05:45:46;3.22;;;2.05;;
66145;SDS011;52948;60.040;30.320;2023-06-14T05:50:48;5.05;;;1.98;;
66145;SDS011;52948;60.040;30.320;2023-06-14T05:55:51;2.83;;;1.77;;
66145;SDS011;52948;60.040;30.320;2023-06-14T06:00:57;4.00;;;1.92;;
66145;SDS011;52948;60.040;30.320;2023-06-14T06:05:59;4.03;;;1.80;;
66145;SDS011;52948;60.040;30.320;2023-06-14T06:11:01;3.10;;;1.90;;
66145;SDS011;52948;60.040;30.320;2023-06-14T06:16:04;2.92;;;2.00;;
66145;SDS011;52948;60.040;30.320;2023-06-14T06:21:07;4.45;;;1.83;;
66145;SDS011;52948;60.040;30.320;2023-06-14T06:26:09;4.10;;;2.00;;
66145;SDS011;52948;60.040;30.320;2023-06-14T06:31:11;2.88;;;2.10;;
66145;SDS011;52948;60.040;30.320;2023-06-14T06:36:14;4.05;;;2.00;;
66145;SDS011;52948;60.040;30.320;2023-06-14T06:41:16;7.53;;;2.30;;
66145;SDS011;52948;60.040;30.320;2023-06-14T06:46:18;7.68;;;2.65;;
66145;SDS011;52948;60.040;30.320;2023-06-14T06:51:21;3.40;;;1.70;;
66145;SDS011;52948;60.040;30.320;2023-06-14T06:56:25;11.18;;;1.67;;
66145;SDS011;52948;60.040;30.320;2023-06-14T07:01:28;3.50;;;2.20;;
66145;SDS011;52948;60.040;30.320;2023-06-14T07:06:31;4.78;;;1.90;;
66145;SDS011;52948;60.040;30.320;2023-06-14T07:11:33;3.33;;;2.10;;
66145;SDS011;52948;60.040;30.320;2023-06-14T07:16:36;4.07;;;1.85;;
66145;SDS011;52948;60.040;30.320;2023-06-14T07:21:38;4.90;;;2.00;;
66145;SDS011;52948;60.040;30.320;2023-06-14T07:26:41;5.20;;;2.05;;
66145;SDS011;52948;60.040;30.320;2023-06-14T07:31:44;3.10;;;2.05;;
66145;SDS011;52948;60.040;30.320;2023-06-14T07:36:46;3.17;;;2.25;;
66145;SDS011;52948;60.040;30.320;2023-06-14T07:41:49;3.75;;;2.45;;
66145;SDS011;52948;60.040;30.320;2023-06-14T07:46:51;2.33;;;2.10;;
66145;SDS011;52948;60.040;30.320;2023-06-14T07:51:54;2.20;;;1.77;;
66145;SDS011;52948;60.040;30.320;2023-06-14T07:56:56;2.03;;;1.83;;
66145;SDS011;52948;60.040;30.320;2023-06-14T08:01:59;4.22;;;2.00;;
66145;SDS011;52948;60.040;30.320;2023-06-14T08:07:01;4.57;;;3.03;;
66145;SDS011;52948;60.040;30.320;2023-06-14T08:12:06;5.40;;;3.00;;
66145;SDS011;52948;60.040;30.320;2023-06-14T08:17:11;4.15;;;2.30;;
66145;SDS011;52948;60.040;30.320;2023-06-14T08:22:13;3.75;;;2.05;;
66145;SDS011;52948;60.040;30.320;2023-06-14T08:27:15;1.85;;;1.55;;
66145;SDS011;52948;60.040;30.320;2023-06-14T08:32:17;3.58;;;2.40;;
66145;SDS011;52948;60.040;30.320;2023-06-14T08:37:20;6.30;;;2.53;;
66145;SDS011;52948;60.040;30.320;2023-06-14T08:42:22;4.78;;;1.90;;
66145;SDS011;52948;60.040;30.320;2023-06-14T08:47:26;5.43;;;2.30;;
66145;SDS011;52948;60.040;30.320;2023-06-14T08:52:31;3.17;;;2.17;;
66145;SDS011;52948;60.040;30.320;2023-06-14T08:57:36;3.42;;;2.20;;
66145;SDS011;52948;60.040;30.320;2023-06-14T09:02:39;3.55;;;2.35;;
66145;SDS011;52948;60.040;30.320;2023-06-14T09:07:47;3.75;;;2.10;;
66145;SDS011;52948;60.040;30.320;2023-06-14T09:12:52;3.75;;;2.10;;
66145;SDS011;52948;60.040;30.320;2023-06-14T09:17:54;8.55;;;3.20;;
66145;SDS011;52948;60.040;30.320;2023-06-14T09:22:58;3.53;;;2.30;;
66145;SDS011;52948;60.040;30.320;2023-06-14T09:28:00;2.35;;;1.98;;
66145;SDS011;52948;60.040;30.320;2023-06-14T09:33:03;5.15;;;2.10;;
66145;SDS011;52948;60.040;30.320;2023-06-14T09:38:05;4.43;;;2.13;;
66145;SDS011;52948;60.040;30.320;2023-06-14T09:43:08;2.72;;;1.90;;
66145;SDS011;52948;60.040;30.320;2023-06-14T09:48:11;2.95;;;1.88;;
66145;SDS011;52948;60.040;30.320;2023-06-14T09:53:20;5.38;;;2.28;;
66145;SDS011;52948;60.040;30.320;2023-06-14T09:58:25;3.10;;;2.25;;
66145;SDS011;52948;60.040;30.320;2023-06-14T10:03:28;3.08;;;1.90;;
66145;SDS011;52948;60.040;30.320;2023-06-14T10:08:31;3.15;;;2.17;;
66145;SDS011;52948;60.040;30.320;2023-06-14T10:13:35;3.38;;;1.70;;
66145;SDS011;52948;60.040;30.320;2023-06-14T10:18:49;3.65;;;1.95;;
66145;SDS011;52948;60.040;30.320;2023-06-14T10:23:55;4.43;;;2.22;;
66145;SDS011;52948;60.040;30.320;2023-06-14T10:28:59;2.53;;;2.03;;
66145;SDS011;52948;60.040;30.320;2023-06-14T10:34:03;8.70;;;2.10;;
66145;SDS011;52948;60.040;30.320;2023-06-14T10:39:14;4.70;;;1.98;;
66145;SDS011;52948;60.040;30.320;2023-06-14T10:49:37;5.78;;;2.60;;
66145;SDS011;52948;60.040;30.320;2023-06-14T11:00:02;5.40;;;2.20;;
66145;SDS011;52948;60.040;30.320;2023-06-14T11:05:28;3.83;;;2.20;;
66145;SDS011;52948;60.040;30.320;2023-06-14T11:15:43;7.60;;;2.40;;
66145;SDS011;52948;60.040;30.320;2023-06-14T11:20:47;2.45;;;2.25;;
66145;SDS011;52948;60.040;30.320;2023-06-14T11:25:52;2.40;;;2.20;;
66145;SDS011;52948;60.040;30.320;2023-06-14T11:31:01;3.35;;;2.00;;
66145;SDS011;52948;60.040;30.320;2023-06-14T11:36:06;2.55;;;2.35;;
66145;SDS011;52948;60.040;30.320;2023-06-14T11:41:15;3.83;;;2.10;;
66145;SDS011;52948;60.040;30.320;2023-06-14T11:46:18;4.47;;;2.00;;
66145;SDS011;52948;60.040;30.320;2023-06-14T11:51:26;2.47;;;2.20;;
66145;SDS011;52948;60.040;30.320;2023-06-14T11:56:30;3.80;;;2.38;;
66145;SDS011;52948;60.040;30.320;2023-06-14T12:01:35;4.85;;;2.22;;
66145;SDS011;52948;60.040;30.320;2023-06-14T12:06:41;3.55;;;2.30;;
66145;SDS011;52948;60.040;30.320;2023-06-14T12:11:44;2.50;;;2.17;;
66145;SDS011;52948;60.040;30.320;2023-06-14T12:16:47;3.00;;;2.17;;
66145;SDS011;52948;60.040;30.320;2023-06-14T12:21:49;5.07;;;2.28;;
66145;SDS011;52948;60.040;30.320;2023-06-14T12:26:52;2.60;;;2.10;;
66145;SDS011;52948;60.040;30.320;2023-06-14T12:31:55;2.40;;;2.17;;
66145;SDS011;52948;60.040;30.320;2023-06-14T12:36:59;2.58;;;2.30;;
66145;SDS011;52948;60.040;30.320;2023-06-14T12:42:06;2.97;;;1.90;;
66145;SDS011;52948;60.040;30.320;2023-06-14T12:47:08;3.58;;;2.53;;
66145;SDS011;52948;60.040;30.320;2023-06-14T12:52:11;2.92;;;2.20;;
66145;SDS011;52948;60.040;30.320;2023-06-14T12:57:13;2.45;;;2.17;;
66145;SDS011;52948;60.040;30.320;2023-06-14T13:02:16;3.70;;;2.45;;
66145;SDS011;52948;60.040;30.320;2023-06-14T13:07:19;5.28;;;2.65;;
66145;SDS011;52948;60.040;30.320;2023-06-14T13:12:22;3.20;;;2.67;;
66145;SDS011;52948;60.040;30.320;2023-06-14T13:17:24;3.38;;;2.60;;
66145;SDS011;52948;60.040;30.320;2023-06-14T13:22:26;3.83;;;2.80;;
66145;SDS011;52948;60.040;30.320;2023-06-14T13:27:29;2.95;;;2.50;;
66145;SDS011;52948;60.040;30.320;2023-06-14T13:32:31;3.20;;;2.65;;
66145;SDS011;52948;60.040;30.320;2023-06-14T13:37:34;4.65;;;2.70;;
66145;SDS011;52948;60.040;30.320;2023-06-14T13:42:36;3.13;;;2.55;;
66145;SDS011;52948;60.040;30.320;2023-06-14T13:47:39;5.80;;;2.63;;
66145;SDS011;52948;60.040;30.320;2023-06-14T13:52:41;4.05;;;2.92;;
66145;SDS011;52948;60.040;30.320;2023-06-14T13:57:43;2.85;;;2.45;;
66145;SDS011;52948;60.040;30.320;2023-06-14T14:02:47;3.05;;;2.63;;
66145;SDS011;52948;60.040;30.320;2023-06-14T14:07:50;4.13;;;2.88;;
66145;SDS011;52948;60.040;30.320;2023-06-14T14:12:54;4.68;;;2.58;;
66145;SDS011;52948;60.040;30.320;2023-06-14T14:17:56;2.95;;;2.42;;
66145;SDS011;52948;60.040;30.320;2023-06-14T14:22:59;2.90;;;2.60;;
66145;SDS011;52948;60.040;30.320;2023-06-14T14:28:01;2.55;;;2.35;;
66145;SDS011;52948;60.040;30.320;2023-06-14T14:33:03;3.70;;;2.80;;
66145;SDS011;52948;60.040;30.320;2023-06-14T14:38:06;5.45;;;2.70;;
66145;SDS011;52948;60.040;30.320;2023-06-14T14:43:08;4.90;;;2.83;;
66145;SDS011;52948;60.040;30.320;2023-06-14T14:48:10;3.53;;;3.00;;
66145;SDS011;52948;60.040;30.320;2023-06-14T14:53:13;3.85;;;2.40;;
66145;SDS011;52948;60.040;30.320;2023-06-14T14:58:18;7.20;;;2.70;;
66145;SDS011;52948;60.040;30.320;2023-06-14T15:03:20;5.97;;;2.33;;
66145;SDS011;52948;60.040;30.320;2023-06-14T15:08:22;5.15;;;2.72;;
66145;SDS011;52948;60.040;30.320;2023-06-14T15:13:25;4.30;;;2.80;;
66145;SDS011;52948;60.040;30.320;2023-06-14T15:18:27;6.68;;;2.40;;
66145;SDS011;52948;60.040;30.320;2023-06-14T15:23:29;2.53;;;2.33;;
66145;SDS011;52948;60.040;30.320;2023-06-14T15:28:31;7.88;;;3.10;;
66145;SDS011;52948;60.040;30.320;2023-06-14T15:33:34;7.65;;;3.00;;
66145;SDS011;52948;60.040;30.320;2023-06-14T15:38:36;2.97;;;2.50;;
66145;SDS011;52948;60.040;30.320;2023-06-14T15:43:38;6.95;;;3.17;;
66145;SDS011;52948;60.040;30.320;2023-06-14T15:48:41;5.20;;;3.50;;
66145;SDS011;52948;60.040;30.320;2023-06-14T15:53:43;3.40;;;2.63;;
66145;SDS011;52948;60.040;30.320;2023-06-14T15:58:45;4.80;;;3.13;;
66145;SDS011;52948;60.040;30.320;2023-06-14T16:03:48;4.25;;;2.75;;
66145;SDS011;52948;60.040;30.320;2023-06-14T16:08:50;3.35;;;2.83;;
66145;SDS011;52948;60.040;30.320;2023-06-14T16:13:54;7.13;;;2.50;;
66145;SDS011;52948;60.040;30.320;2023-06-14T16:18:57;3.80;;;2.90;;
66145;SDS011;52948;60.040;30.320;2023-06-14T16:23:59;3.75;;;2.75;;
66145;SDS011;52948;60.040;30.320;2023-06-14T16:29:02;4.18;;;2.40;;
66145;SDS011;52948;60.040;30.320;2023-06-14T16:34:09;3.50;;;2.17;;
66145;SDS011;52948;60.040;30.320;2023-06-14T16:39:13;8.25;;;2.70;;
66145;SDS011;52948;60.040;30.320;2023-06-14T16:44:15;7.30;;;2.50;;
66145;SDS011;52948;60.040;30.320;2023-06-14T16:49:17;4.75;;;2.80;;
66145;SDS011;52948;60.040;30.320;2023-06-14T16:54:20;5.30;;;3.00;;
66145;SDS011;52948;60.040;30.320;2023-06-14T16:59:22;3.67;;;2.45;;
66145;SDS011;52948;60.040;30.320;2023-06-14T17:04:24;6.30;;;2.22;;
66145;SDS011;52948;60.040;30.320;2023-06-14T17:09:27;2.85;;;2.45;;
66145;SDS011;52948;60.040;30.320;2023-06-14T17:14:29;3.67;;;2.40;;
66145;SDS011;52948;60.040;30.320;2023-06-14T17:19:31;5.13;;;2.60;;
66145;SDS011;52948;60.040;30.320;2023-06-14T17:24:34;3.13;;;2.33;;
66145;SDS011;52948;60.040;30.320;2023-06-14T17:29:36;4.15;;;2.90;;
66145;SDS011;52948;60.040;30.320;2023-06-14T17:34:38;4.05;;;2.72;;
66145;SDS011;52948;60.040;30.320;2023-06-14T17:39:40;6.22;;;2.47;;
66145;SDS011;52948;60.040;30.320;2023-06-14T17:44:43;4.28;;;2.30;;
66145;SDS011;52948;60.040;30.320;2023-06-14T17:49:46;4.85;;;2.35;;
66145;SDS011;52948;60.040;30.320;2023-06-14T17:54:51;3.60;;;2.05;;
66145;SDS011;52948;60.040;30.320;2023-06-14T17:59:54;4.07;;;1.98;;
66145;SDS011;52948;60.040;30.320;2023-06-14T18:04:59;4.03;;;2.00;;
66145;SDS011;52948;60.040;30.320;2023-06-14T18:10:01;3.55;;;2.25;;
66145;SDS011;52948;60.040;30.320;2023-06-14T18:15:04;3.03;;;2.20;;
66145;SDS011;52948;60.040;30.320;2023-06-14T18:20:07;5.40;;;2.10;;
66145;SDS011;52948;60.040;30.320;2023-06-14T18:25:11;3.40;;;2.05;;
66145;SDS011;52948;60.040;30.320;2023-06-14T18:30:17;5.53;;;2.17;;
66145;SDS011;52948;60.040;30.320;2023-06-14T18:35:20;3.92;;;2.10;;
66145;SDS011;52948;60.040;30.320;2023-06-14T18:40:23;2.95;;;2.20;;
66145;SDS011;52948;60.040;30.320;2023-06-14T18:45:25;3.65;;;2.10;;
66145;SDS011;52948;60.040;30.320;2023-06-14T18:50:27;4.18;;;2.13;;
66145;SDS011;52948;60.040;30.320;2023-06-14T18:55:29;4.75;;;2.20;;
66145;SDS011;52948;60.040;30.320;2023-06-14T19:00:31;5.40;;;2.10;;
66145;SDS011;52948;60.040;30.320;2023-06-14T19:05:34;7.13;;;2.80;;
66145;SDS011;52948;60.040;30.320;2023-06-14T19:10:36;6.80;;;2.72;;
66145;SDS011;52948;60.040;30.320;2023-06-14T19:15:38;3.05;;;1.95;;
66145;SDS011;52948;60.040;30.320;2023-06-14T19:20:41;3.17;;;1.90;;
66145;SDS011;52948;60.040;30.320;2023-06-14T19:25:43;3.65;;;2.10;;
66145;SDS011;52948;60.040;30.320;2023-06-14T19:30:45;5.07;;;1.88;;
66145;SDS011;52948;60.040;30.320;2023-06-14T19:35:47;10.23;;;2.20;;
66145;SDS011;52948;60.040;30.320;2023-06-14T19:40:49;3.80;;;2.20;;
66145;SDS011;52948;60.040;30.320;2023-06-14T19:45:51;2.35;;;2.08;;
66145;SDS011;52948;60.040;30.320;2023-06-14T19:50:53;5.15;;;2.22;;
66145;SDS011;52948;60.040;30.320;2023-06-14T19:55:56;3.08;;;2.13;;
66145;SDS011;52948;60.040;30.320;2023-06-14T20:00:58;2.40;;;1.80;;
66145;SDS011;52948;60.040;30.320;2023-06-14T20:06:00;4.93;;;2.17;;
66145;SDS011;52948;60.040;30.320;2023-06-14T20:11:03;3.45;;;2.17;;
66145;SDS011;52948;60.040;30.320;2023-06-14T20:16:05;8.23;;;2.97;;
66145;SDS011;52948;60.040;30.320;2023-06-14T20:21:07;6.35;;;3.40;;
66145;SDS011;52948;60.040;30.320;2023-06-14T20:26:09;9.88;;;2.92;;
66145;SDS011;52948;60.040;30.320;2023-06-14T20:31:13;5.20;;;2.75;;
66145;SDS011;52948;60.040;30.320;2023-06-14T20:36:20;6.65;;;3.47;;
66145;SDS011;52948;60.040;30.320;2023-06-14T20:41:22;9.50;;;3.10;;
66145;SDS011;52948;60.040;30.320;2023-06-14T20:46:25;9.82;;;3.33;;
66145;SDS011;52948;60.040;30.320;2023-06-14T20:51:30;10.05;;;3.35;;
66145;SDS011;52948;60.040;30.320;2023-06-14T20:56:32;6.25;;;3.30;;
66145;SDS011;52948;60.040;30.320;2023-06-14T21:01:34;7.00;;;3.47;;
66145;SDS011;52948;60.040;30.320;2023-06-14T21:06:37;10.63;;;3.45;;
66145;SDS011;52948;60.040;30.320;2023-06-14T21:11:40;9.40;;;3.72;;
66145;SDS011;52948;60.040;30.320;2023-06-14T21:16:42;9.73;;;4.18;;
66145;SDS011;52948;60.040;30.320;2023-06-14T21:21:45;14.82;;;4.78;;
66145;SDS011;52948;60.040;30.320;2023-06-14T21:26:47;13.10;;;5.72;;
66145;SDS011;52948;60.040;30.320;2023-06-14T21:31:49;16.50;;;5.53;;
66145;SDS011;52948;60.040;30.320;2023-06-14T21:36:51;12.63;;;6.35;;
66145;SDS011;52948;60.040;30.320;2023-06-14T21:41:54;12.80;;;4.63;;
66145;SDS011;52948;60.040;30.320;2023-06-14T21:46:56;10.63;;;4.72;;
66145;SDS011;52948;60.040;30.320;2023-06-14T21:51:59;11.30;;;4.53;;
66145;SDS011;52948;60.040;30.320;2023-06-14T21:57:02;13.63;;;5.20;;
66145;SDS011;52948;60.040;30.320;2023-06-14T22:02:04;13.93;;;5.30;;
66145;SDS011;52948;60.040;30.320;2023-06-14T22:07:06;11.63;;;5.18;;
66145;SDS011;52948;60.040;30.320;2023-06-14T22:12:10;13.30;;;5.40;;
66145;SDS011;52948;60.040;30.320;2023-06-14T22:17:16;13.05;;;5.18;;
66145;SDS011;52948;60.040;30.320;2023-06-14T22:22:19;9.90;;;5.10;;
66145;SDS011;52948;60.040;30.320;2023-06-14T22:27:28;10.63;;;4.90;;
66145;SDS011;52948;60.040;30.320;2023-06-14T22:32:31;12.20;;;5.00;;
66145;SDS011;52948;60.040;30.320;2023-06-14T22:37:35;14.82;;;5.32;;
66145;SDS011;52948;60.040;30.320;2023-06-14T22:42:39;8.68;;;4.97;;
66145;SDS011;52948;60.040;30.320;2023-06-14T22:47:51;12.95;;;5.57;;
66145;SDS011;52948;60.040;30.320;2023-06-14T22:52:53;12.18;;;5.25;;
66145;SDS011;52948;60.040;30.320;2023-06-14T22:57:55;10.77;;;5.63;;
66145;SDS011;52948;60.040;30.320;2023-06-14T23:02:57;13.85;;;6.20;;
66145;SDS011;52948;60.040;30.320;2023-06-14T23:07:59;11.48;;;5.10;;
66145;SDS011;52948;60.040;30.320;2023-06-14T23:13:02;14.10;;;5.35;;
66145;SDS011;52948;60.040;30.320;2023-06-14T23:18:04;20.15;;;7.07;;
66145;SDS011;52948;60.040;30.320;2023-06-14T23:23:07;15.10;;;6.40;;
66145;SDS011;52948;60.040;30.320;2023-06-14T23:28:09;17.02;;;6.28;;
66145;SDS011;52948;60.040;30.320;2023-06-14T23:33:11;16.20;;;5.60;;
66145;SDS011;52948;60.040;30.320;2023-06-14T23:38:18;18.80;;;5.85;;
66145;SDS011;52948;60.040;30.320;2023-06-14T23:43:22;16.05;;;5.32;;
66145;SDS011;52948;60.040;30.320;2023-06-14T23:48:26;16.00;;;6.00;;
66145;SDS011;52948;60.040;30.320;2023-06-14T23:53:28;16.55;;;5.32;;
66145;SDS011;52948;60.040;30.320;2023-06-14T23:58:30;11.98;;;5.82;;
